sensor_id;sensor_type;location;lat;lon;timestamp;pressure;altitude;pressure_sealevel;temperature;humidity
74893;BME280;63446;56.272;43.922;2023-07-13T00:00:49;99653.81;;;13.70;75.20
74893;BME280;63446;56.272;43.922;2023-07-13T00:03:15;99658.97;;;13.66;75.34
74893;BME280;63446;56.272;43.922;2023-07-13T00:05:43;99655.97;;;13.59;75.28
74893;BME280;63446;56.272;43.922;2023-07-13T00:08:09;99652.34;;;13.55;75.41
74893;BME280;63446;56.272;43.922;2023-07-13T00:10:41;99656.38;;;13.52;75.60
74893;BME280;63446;56.272;43.922;2023-07-13T00:13:08;99661.53;;;13.49;75.59
74893;BME280;63446;56.272;43.922;2023-07-13T00:15:34;99660.09;;;13.42;75.81
74893;BME280;63446;56.272;43.922;2023-07-13T00:18:01;99658.53;;;13.41;75.84
74893;BME280;63446;56.272;43.922;2023-07-13T00:20:29;99662.84;;;13.37;76.09
74893;BME280;63446;56.272;43.922;2023-07-13T00:22:55;99660.34;;;13.32;75.82
74893;BME280;63446;56.272;43.922;2023-07-13T00:25:22;99667.53;;;13.32;76.02
74893;BME280;63446;56.272;43.922;2023-07-13T00:27:50;99660.94;;;13.29;76.11
74893;BME280;63446;56.272;43.922;2023-07-13T00:30:16;99664.69;;;13.28;76.28
74893;BME280;63446;56.272;43.922;2023-07-13T00:32:43;99666.06;;;13.26;76.21
74893;BME280;63446;56.272;43.922;2023-07-13T00:35:09;99673.25;;;13.25;76.04
74893;BME280;63446;56.272;43.922;2023-07-13T00:37:35;99674.34;;;13.24;76.16
74893;BME280;63446;56.272;43.922;2023-07-13T00:40:03;99677.00;;;13.24;76.15
74893;BME280;63446;56.272;43.922;2023-07-13T00:42:31;99679.13;;;13.22;76.25
74893;BME280;63446;56.272;43.922;2023-07-13T00:47:53;99669.31;;;13.23;76.29
74893;BME280;63446;56.272;43.922;2023-07-13T00:50:22;99677.00;;;13.24;76.15
74893;BME280;63446;56.272;43.922;2023-07-13T00:52:52;99667.16;;;13.25;76.12
74893;BME280;63446;56.272;43.922;2023-07-13T00:55:21;99672.97;;;13.27;76.07
74893;BME280;63446;56.272;43.922;2023-07-13T00:57:48;99681.41;;;13.29;76.19
74893;BME280;63446;56.272;43.922;2023-07-13T01:00:15;99680.78;;;13.32;76.02
74893;BME280;63446;56.272;43.922;2023-07-13T01:02:44;99677.81;;;13.33;75.83
74893;BME280;63446;56.272;43.922;2023-07-13T01:05:22;99678.50;;;13.39;76.04
74893;BME280;63446;56.272;43.922;2023-07-13T01:07:51;99678.69;;;13.42;75.70
74893;BME280;63446;56.272;43.922;2023-07-13T01:10:21;99681.50;;;13.46;75.56
74893;BME280;63446;56.272;43.922;2023-07-13T01:12:48;99680.59;;;13.51;75.42
74893;BME280;63446;56.272;43.922;2023-07-13T01:18:08;99682.19;;;13.60;75.16
74893;BME280;63446;56.272;43.922;2023-07-13T01:20:35;99681.75;;;13.67;74.97
74893;BME280;63446;56.272;43.922;2023-07-13T01:23:07;99679.78;;;13.73;74.69
74893;BME280;63446;56.272;43.922;2023-07-13T01:25:35;99681.69;;;13.81;74.71
74893;BME280;63446;56.272;43.922;2023-07-13T01:28:07;99680.94;;;13.89;74.25
74893;BME280;63446;56.272;43.922;2023-07-13T01:30:35;99669.53;;;13.97;74.20
74893;BME280;63446;56.272;43.922;2023-07-13T01:33:01;99685.22;;;14.07;74.04
74893;BME280;63446;56.272;43.922;2023-07-13T01:35:29;99675.22;;;14.22;73.70
74893;BME280;63446;56.272;43.922;2023-07-13T01:37:55;99685.22;;;14.64;72.90
74893;BME280;63446;56.272;43.922;2023-07-13T01:40:23;99686.44;;;15.92;69.82
74893;BME280;63446;56.272;43.922;2023-07-13T01:42:49;99681.25;;;17.09;67.43
74893;BME280;63446;56.272;43.922;2023-07-13T01:45:15;99690.63;;;18.71;63.42
74893;BME280;63446;56.272;43.922;2023-07-13T01:47:41;99692.97;;;19.88;60.44
74893;BME280;63446;56.272;43.922;2023-07-13T01:50:07;99690.66;;;20.92;57.50
74893;BME280;63446;56.272;43.922;2023-07-13T01:52:33;99692.00;;;21.44;56.00
74893;BME280;63446;56.272;43.922;2023-07-13T01:54:59;99696.03;;;21.54;55.15
74893;BME280;63446;56.272;43.922;2023-07-13T01:57:25;99690.34;;;22.62;52.46
74893;BME280;63446;56.272;43.922;2023-07-13T01:59:51;99686.69;;;23.93;49.53
74893;BME280;63446;56.272;43.922;2023-07-13T02:02:16;99693.16;;;25.45;46.10
74893;BME280;63446;56.272;43.922;2023-07-13T02:04:42;99684.03;;;26.80;43.57
74893;BME280;63446;56.272;43.922;2023-07-13T02:07:08;99684.06;;;27.95;40.92
74893;BME280;63446;56.272;43.922;2023-07-13T02:09:35;99681.56;;;28.80;39.29
74893;BME280;63446;56.272;43.922;2023-07-13T02:12:01;99681.28;;;30.02;36.63
74893;BME280;63446;56.272;43.922;2023-07-13T02:14:34;99670.00;;;31.32;34.48
74893;BME280;63446;56.272;43.922;2023-07-13T02:17:01;99670.25;;;32.45;32.49
74893;BME280;63446;56.272;43.922;2023-07-13T02:19:28;99658.22;;;33.58;30.72
74893;BME280;63446;56.272;43.922;2023-07-13T02:21:54;99657.91;;;33.77;30.15
74893;BME280;63446;56.272;43.922;2023-07-13T02:24:19;99658.91;;;34.81;28.54
74893;BME280;63446;56.272;43.922;2023-07-13T02:26:47;99659.88;;;34.56;28.44
74893;BME280;63446;56.272;43.922;2023-07-13T02:29:14;99648.31;;;35.60;26.95
74893;BME280;63446;56.272;43.922;2023-07-13T02:31:40;99645.00;;;36.53;25.60
74893;BME280;63446;56.272;43.922;2023-07-13T02:34:07;99644.00;;;37.32;24.55
74893;BME280;63446;56.272;43.922;2023-07-13T02:36:33;99649.97;;;37.78;24.04
74893;BME280;63446;56.272;43.922;2023-07-13T02:39:01;99650.13;;;37.60;24.07
74893;BME280;63446;56.272;43.922;2023-07-13T02:41:27;99641.22;;;36.41;25.16
74893;BME280;63446;56.272;43.922;2023-07-13T02:43:54;99647.72;;;35.56;25.70
74893;BME280;63446;56.272;43.922;2023-07-13T02:46:32;99650.78;;;34.15;27.10
74893;BME280;63446;56.272;43.922;2023-07-13T02:49:00;99649.38;;;32.77;28.32
74893;BME280;63446;56.272;43.922;2023-07-13T02:51:27;99642.94;;;31.71;30.03
74893;BME280;63446;56.272;43.922;2023-07-13T02:53:53;99646.06;;;30.51;31.32
74893;BME280;63446;56.272;43.922;2023-07-13T02:56:23;99646.34;;;29.50;32.41
74893;BME280;63446;56.272;43.922;2023-07-13T02:58:49;99641.56;;;28.50;33.85
74893;BME280;63446;56.272;43.922;2023-07-13T03:01:15;99640.56;;;27.54;35.39
74893;BME280;63446;56.272;43.922;2023-07-13T03:03:45;99642.66;;;26.72;36.70
74893;BME280;63446;56.272;43.922;2023-07-13T03:06:13;99640.56;;;25.96;38.19
74893;BME280;63446;56.272;43.922;2023-07-13T03:08:47;99637.09;;;25.27;39.23
74893;BME280;63446;56.272;43.922;2023-07-13T03:11:18;99639.69;;;24.81;40.15
74893;BME280;63446;56.272;43.922;2023-07-13T03:13:47;99644.09;;;24.27;41.01
74893;BME280;63446;56.272;43.922;2023-07-13T03:16:15;99641.50;;;23.82;42.02
74893;BME280;63446;56.272;43.922;2023-07-13T03:18:43;99640.84;;;23.52;42.67
74893;BME280;63446;56.272;43.922;2023-07-13T03:21:11;99647.97;;;23.26;43.56
74893;BME280;63446;56.272;43.922;2023-07-13T03:23:38;99645.78;;;23.43;43.56
74893;BME280;63446;56.272;43.922;2023-07-13T03:26:13;99644.34;;;23.56;43.20
74893;BME280;63446;56.272;43.922;2023-07-13T03:28:41;99640.53;;;24.12;42.29
74893;BME280;63446;56.272;43.922;2023-07-13T03:31:14;99648.31;;;25.69;39.83
74893;BME280;63446;56.272;43.922;2023-07-13T03:33:41;99654.72;;;26.61;38.52
74893;BME280;63446;56.272;43.922;2023-07-13T03:36:14;99649.38;;;28.10;36.05
74893;BME280;63446;56.272;43.922;2023-07-13T03:38:50;99658.78;;;29.98;33.55
74893;BME280;63446;56.272;43.922;2023-07-13T03:41:22;99651.56;;;31.69;31.03
74893;BME280;63446;56.272;43.922;2023-07-13T03:43:49;99654.25;;;32.02;30.53
74893;BME280;63446;56.272;43.922;2023-07-13T03:46:19;99642.34;;;32.50;29.62
74893;BME280;63446;56.272;43.922;2023-07-13T03:48:47;99650.34;;;31.70;30.80
74893;BME280;63446;56.272;43.922;2023-07-13T03:51:15;99641.16;;;30.99;31.56
74893;BME280;63446;56.272;43.922;2023-07-13T03:53:43;99651.72;;;30.60;32.27
74893;BME280;63446;56.272;43.922;2023-07-13T03:56:14;99653.44;;;29.91;32.96
74893;BME280;63446;56.272;43.922;2023-07-13T03:58:43;99649.91;;;30.54;32.48
74893;BME280;63446;56.272;43.922;2023-07-13T04:01:21;99645.34;;;31.20;31.32
74893;BME280;63446;56.272;43.922;2023-07-13T04:03:48;99646.72;;;31.11;31.67
74893;BME280;63446;56.272;43.922;2023-07-13T04:06:26;99647.09;;;33.01;29.17
74893;BME280;63446;56.272;43.922;2023-07-13T04:08:56;99648.31;;;33.95;27.67
74893;BME280;63446;56.272;43.922;2023-07-13T04:11:25;99651.63;;;34.87;26.80
74893;BME280;63446;56.272;43.922;2023-07-13T04:13:53;99643.19;;;36.50;25.04
74893;BME280;63446;56.272;43.922;2023-07-13T04:16:19;99644.97;;;39.01;22.51
74893;BME280;63446;56.272;43.922;2023-07-13T04:18:46;99626.66;;;38.83;22.30
74893;BME280;63446;56.272;43.922;2023-07-13T04:21:13;99646.47;;;39.37;21.94
74893;BME280;63446;56.272;43.922;2023-07-13T04:23:39;99630.91;;;40.38;21.01
74893;BME280;63446;56.272;43.922;2023-07-13T04:26:05;99645.81;;;40.15;20.68
74893;BME280;63446;56.272;43.922;2023-07-13T04:28:33;99640.81;;;39.93;20.91
74893;BME280;63446;56.272;43.922;2023-07-13T04:30:58;99640.13;;;38.61;21.90
74893;BME280;63446;56.272;43.922;2023-07-13T04:33:25;99645.91;;;40.26;20.41
74893;BME280;63446;56.272;43.922;2023-07-13T04:35:52;99651.41;;;40.52;19.94
74893;BME280;63446;56.272;43.922;2023-07-13T04:38:28;99645.16;;;40.25;20.10
74893;BME280;63446;56.272;43.922;2023-07-13T04:40:56;99648.22;;;40.65;19.61
74893;BME280;63446;56.272;43.922;2023-07-13T04:43:23;99646.53;;;41.98;18.60
74893;BME280;63446;56.272;43.922;2023-07-13T04:45:50;99630.88;;;41.13;18.93
74893;BME280;63446;56.272;43.922;2023-07-13T04:48:17;99635.59;;;41.01;19.21
74893;BME280;63446;56.272;43.922;2023-07-13T04:50:42;99632.94;;;39.86;20.63
74893;BME280;63446;56.272;43.922;2023-07-13T04:53:09;99629.78;;;38.91;21.26
74893;BME280;63446;56.272;43.922;2023-07-13T04:55:36;99618.56;;;37.61;22.13
74893;BME280;63446;56.272;43.922;2023-07-13T04:58:05;99636.34;;;37.60;22.16
74893;BME280;63446;56.272;43.922;2023-07-13T05:00:31;99619.81;;;37.12;22.57
74893;BME280;63446;56.272;43.922;2023-07-13T05:02:58;99634.25;;;37.07;22.76
74893;BME280;63446;56.272;43.922;2023-07-13T05:05:26;99631.31;;;36.77;23.05
74893;BME280;63446;56.272;43.922;2023-07-13T05:07:53;99639.28;;;36.75;23.12
74893;BME280;63446;56.272;43.922;2023-07-13T05:10:24;99630.09;;;36.27;23.41
74893;BME280;63446;56.272;43.922;2023-07-13T05:12:52;99633.91;;;35.28;24.57
74893;BME280;63446;56.272;43.922;2023-07-13T05:15:22;99641.81;;;34.77;24.98
74893;BME280;63446;56.272;43.922;2023-07-13T05:17:49;99623.88;;;33.66;26.44
74893;BME280;63446;56.272;43.922;2023-07-13T05:20:16;99630.88;;;34.01;26.60
74893;BME280;63446;56.272;43.922;2023-07-13T05:22:42;99627.50;;;34.19;25.99
74893;BME280;63446;56.272;43.922;2023-07-13T05:25:09;99622.50;;;34.27;25.83
74893;BME280;63446;56.272;43.922;2023-07-13T05:27:36;99617.66;;;34.62;25.50
74893;BME280;63446;56.272;43.922;2023-07-13T05:30:03;99620.97;;;34.88;24.96
74893;BME280;63446;56.272;43.922;2023-07-13T05:32:32;99626.00;;;35.49;24.83
74893;BME280;63446;56.272;43.922;2023-07-13T05:34:58;99618.06;;;35.97;24.27
74893;BME280;63446;56.272;43.922;2023-07-13T05:37:25;99614.94;;;37.55;22.76
74893;BME280;63446;56.272;43.922;2023-07-13T05:39:51;99623.13;;;39.85;20.76
74893;BME280;63446;56.272;43.922;2023-07-13T05:42:18;99612.44;;;41.81;19.12
74893;BME280;63446;56.272;43.922;2023-07-13T05:44:44;99624.09;;;42.24;19.07
74893;BME280;63446;56.272;43.922;2023-07-13T05:47:09;99613.44;;;41.78;18.60
74893;BME280;63446;56.272;43.922;2023-07-13T05:49:35;99611.09;;;40.83;19.44
74893;BME280;63446;56.272;43.922;2023-07-13T05:52:01;99609.44;;;40.27;20.15
74893;BME280;63446;56.272;43.922;2023-07-13T05:54:28;99608.03;;;39.86;20.28
74893;BME280;63446;56.272;43.922;2023-07-13T05:56:55;99605.94;;;39.54;20.30
74893;BME280;63446;56.272;43.922;2023-07-13T05:59:21;99612.88;;;39.03;20.83
74893;BME280;63446;56.272;43.922;2023-07-13T06:01:47;99596.53;;;38.50;21.14
74893;BME280;63446;56.272;43.922;2023-07-13T06:04:12;99599.69;;;38.28;21.38
74893;BME280;63446;56.272;43.922;2023-07-13T06:06:38;99590.59;;;38.07;21.37
74893;BME280;63446;56.272;43.922;2023-07-13T06:09:04;99595.84;;;38.55;21.01
74893;BME280;63446;56.272;43.922;2023-07-13T06:11:31;99576.81;;;38.57;20.99
74893;BME280;63446;56.272;43.922;2023-07-13T06:13:57;99586.56;;;38.23;21.22
74893;BME280;63446;56.272;43.922;2023-07-13T06:16:23;99583.97;;;37.60;22.05
74893;BME280;63446;56.272;43.922;2023-07-13T06:18:48;99579.25;;;36.88;22.24
74893;BME280;63446;56.272;43.922;2023-07-13T06:21:20;99571.94;;;36.01;23.40
74893;BME280;63446;56.272;43.922;2023-07-13T06:23:49;99570.72;;;35.19;23.96
74893;BME280;63446;56.272;43.922;2023-07-13T06:26:18;99567.38;;;34.25;24.60
74893;BME280;63446;56.272;43.922;2023-07-13T06:28:44;99566.47;;;33.27;26.16
74893;BME280;63446;56.272;43.922;2023-07-13T06:31:12;99566.19;;;32.23;26.97
74893;BME280;63446;56.272;43.922;2023-07-13T06:33:39;99566.38;;;31.12;28.38
74893;BME280;63446;56.272;43.922;2023-07-13T06:36:06;99575.97;;;30.12;30.14
74893;BME280;63446;56.272;43.922;2023-07-13T06:38:34;99570.50;;;29.29;31.33
74893;BME280;63446;56.272;43.922;2023-07-13T06:41:00;99581.63;;;28.87;32.17
74893;BME280;63446;56.272;43.922;2023-07-13T06:43:27;99574.75;;;28.79;32.37
74893;BME280;63446;56.272;43.922;2023-07-13T06:45:55;99570.75;;;28.87;32.50
74893;BME280;63446;56.272;43.922;2023-07-13T06:48:22;99572.19;;;28.95;31.88
74893;BME280;63446;56.272;43.922;2023-07-13T06:50:49;99572.94;;;28.96;31.86
74893;BME280;63446;56.272;43.922;2023-07-13T06:53:20;99579.16;;;28.96;31.67
74893;BME280;63446;56.272;43.922;2023-07-13T06:55:46;99583.13;;;28.92;31.93
74893;BME280;63446;56.272;43.922;2023-07-13T06:58:14;99583.25;;;28.81;32.12
74893;BME280;63446;56.272;43.922;2023-07-13T07:00:41;99573.38;;;28.67;32.83
74893;BME280;63446;56.272;43.922;2023-07-13T07:03:07;99578.34;;;28.45;33.01
74893;BME280;63446;56.272;43.922;2023-07-13T07:05:33;99573.63;;;28.15;33.20
74893;BME280;63446;56.272;43.922;2023-07-13T07:07:59;99585.22;;;27.85;33.89
74893;BME280;63446;56.272;43.922;2023-07-13T07:10:25;99586.69;;;27.52;34.25
74893;BME280;63446;56.272;43.922;2023-07-13T07:12:52;99579.97;;;27.26;35.13
74893;BME280;63446;56.272;43.922;2023-07-13T07:15:18;99589.41;;;27.03;35.46
74893;BME280;63446;56.272;43.922;2023-07-13T07:17:44;99599.22;;;26.83;35.57
74893;BME280;63446;56.272;43.922;2023-07-13T07:20:10;99591.59;;;26.64;36.05
74893;BME280;63446;56.272;43.922;2023-07-13T07:22:39;99598.63;;;26.40;36.50
74893;BME280;63446;56.272;43.922;2023-07-13T07:25:05;99592.59;;;26.07;37.07
74893;BME280;63446;56.272;43.922;2023-07-13T07:27:31;99601.91;;;25.74;37.56
74893;BME280;63446;56.272;43.922;2023-07-13T07:29:57;99604.25;;;25.57;38.22
74893;BME280;63446;56.272;43.922;2023-07-13T07:32:24;99610.44;;;25.51;38.48
74893;BME280;63446;56.272;43.922;2023-07-13T07:34:49;99613.53;;;25.53;38.53
74893;BME280;63446;56.272;43.922;2023-07-13T07:37:17;99610.44;;;25.65;38.43
74893;BME280;63446;56.272;43.922;2023-07-13T07:39:43;99604.22;;;25.86;38.13
74893;BME280;63446;56.272;43.922;2023-07-13T07:42:10;99608.00;;;26.24;37.33
74893;BME280;63446;56.272;43.922;2023-07-13T07:44:36;99610.94;;;26.66;37.03
74893;BME280;63446;56.272;43.922;2023-07-13T07:47:02;99610.69;;;27.01;36.38
74893;BME280;63446;56.272;43.922;2023-07-13T07:49:28;99611.78;;;27.18;35.77
74893;BME280;63446;56.272;43.922;2023-07-13T07:51:54;99607.56;;;27.14;35.73
74893;BME280;63446;56.272;43.922;2023-07-13T07:54:20;99609.16;;;27.00;36.07
74893;BME280;63446;56.272;43.922;2023-07-13T07:56:45;99625.91;;;26.88;36.08
74893;BME280;63446;56.272;43.922;2023-07-13T07:59:11;99620.56;;;26.74;36.70
74893;BME280;63446;56.272;43.922;2023-07-13T08:01:37;99621.81;;;26.59;37.08
74893;BME280;63446;56.272;43.922;2023-07-13T08:04:03;99618.38;;;26.40;36.95
74893;BME280;63446;56.272;43.922;2023-07-13T08:06:35;99620.41;;;26.15;37.72
74893;BME280;63446;56.272;43.922;2023-07-13T08:09:00;99625.13;;;25.86;38.10
74893;BME280;63446;56.272;43.922;2023-07-13T08:11:28;99629.78;;;25.60;38.69
74893;BME280;63446;56.272;43.922;2023-07-13T08:13:53;99632.06;;;25.37;39.03
74893;BME280;63446;56.272;43.922;2023-07-13T08:16:19;99620.84;;;25.17;39.57
74893;BME280;63446;56.272;43.922;2023-07-13T08:18:45;99625.81;;;24.97;39.86
74893;BME280;63446;56.272;43.922;2023-07-13T08:21:13;99624.59;;;24.69;40.24
74893;BME280;63446;56.272;43.922;2023-07-13T08:23:38;99630.63;;;24.38;40.58
74893;BME280;63446;56.272;43.922;2023-07-13T08:26:04;99629.31;;;24.03;41.31
74893;BME280;63446;56.272;43.922;2023-07-13T08:28:32;99627.88;;;23.64;42.09
74893;BME280;63446;56.272;43.922;2023-07-13T08:31:02;99626.78;;;23.28;42.67
74893;BME280;63446;56.272;43.922;2023-07-13T08:33:28;99629.28;;;23.03;43.62
74893;BME280;63446;56.272;43.922;2023-07-13T08:35:54;99628.41;;;22.96;43.65
74893;BME280;63446;56.272;43.922;2023-07-13T08:38:20;99622.75;;;23.08;43.36
74893;BME280;63446;56.272;43.922;2023-07-13T08:40:52;99625.31;;;23.34;42.61
74893;BME280;63446;56.272;43.922;2023-07-13T08:43:25;99631.41;;;23.69;41.85
74893;BME280;63446;56.272;43.922;2023-07-13T08:46:02;99626.59;;;24.03;41.42
74893;BME280;63446;56.272;43.922;2023-07-13T08:49:01;99629.13;;;24.44;41.34
74893;BME280;63446;56.272;43.922;2023-07-13T08:54:00;99634.69;;;24.97;40.63
74893;BME280;63446;56.272;43.922;2023-07-13T08:56:30;99638.19;;;25.01;40.36
74893;BME280;63446;56.272;43.922;2023-07-13T08:59:05;99637.03;;;24.95;40.44
74893;BME280;63446;56.272;43.922;2023-07-13T09:04:34;99622.66;;;24.70;40.85
74893;BME280;63446;56.272;43.922;2023-07-13T09:09:57;99626.44;;;24.44;41.43
74893;BME280;63446;56.272;43.922;2023-07-13T09:12:39;99630.53;;;24.16;42.09
74893;BME280;63446;56.272;43.922;2023-07-13T09:15:23;99638.75;;;23.75;42.93
74893;BME280;63446;56.272;43.922;2023-07-13T09:17:52;99637.28;;;23.37;43.68
74893;BME280;63446;56.272;43.922;2023-07-13T09:20:41;99640.69;;;22.93;44.49
74893;BME280;63446;56.272;43.922;2023-07-13T09:23:14;99645.25;;;22.55;44.91
74893;BME280;63446;56.272;43.922;2023-07-13T09:25:42;99642.16;;;22.23;45.76
74893;BME280;63446;56.272;43.922;2023-07-13T09:28:20;99644.00;;;21.92;46.59
74893;BME280;63446;56.272;43.922;2023-07-13T09:33:21;99645.59;;;21.48;48.43
74893;BME280;63446;56.272;43.922;2023-07-13T09:35:48;99650.38;;;21.35;48.92
74893;BME280;63446;56.272;43.922;2023-07-13T09:38:18;99654.00;;;21.23;49.43
74893;BME280;63446;56.272;43.922;2023-07-13T09:44:16;99653.28;;;21.26;49.58
74893;BME280;63446;56.272;43.922;2023-07-13T09:46:55;99647.88;;;21.45;49.30
74893;BME280;63446;56.272;43.922;2023-07-13T09:49:29;99649.78;;;21.68;49.25
74893;BME280;63446;56.272;43.922;2023-07-13T09:52:02;99650.66;;;22.02;48.71
74893;BME280;63446;56.272;43.922;2023-07-13T09:54:28;99645.75;;;22.34;48.07
74893;BME280;63446;56.272;43.922;2023-07-13T09:56:57;99649.47;;;22.53;47.52
74893;BME280;63446;56.272;43.922;2023-07-13T09:59:29;99645.63;;;22.54;47.57
74893;BME280;63446;56.272;43.922;2023-07-13T10:01:55;99642.41;;;22.41;47.80
74893;BME280;63446;56.272;43.922;2023-07-13T10:04:26;99638.63;;;22.19;48.52
74893;BME280;63446;56.272;43.922;2023-07-13T10:07:05;99650.09;;;21.89;49.12
74893;BME280;63446;56.272;43.922;2023-07-13T10:09:32;99649.78;;;21.68;49.44
74893;BME280;63446;56.272;43.922;2023-07-13T10:11:58;99652.94;;;21.51;49.27
74893;BME280;63446;56.272;43.922;2023-07-13T10:14:24;99658.50;;;21.38;48.95
74893;BME280;63446;56.272;43.922;2023-07-13T10:17:00;99656.38;;;21.28;49.04
74893;BME280;63446;56.272;43.922;2023-07-13T10:19:34;99658.94;;;21.21;49.16
74893;BME280;63446;56.272;43.922;2023-07-13T10:22:23;99658.53;;;21.19;49.68
74893;BME280;63446;56.272;43.922;2023-07-13T10:24:52;99645.63;;;21.28;49.76
74893;BME280;63446;56.272;43.922;2023-07-13T10:27:23;99656.06;;;21.53;49.62
74893;BME280;63446;56.272;43.922;2023-07-13T10:32:37;99660.84;;;22.42;47.60
74893;BME280;63446;56.272;43.922;2023-07-13T10:35:05;99652.91;;;22.83;46.60
74893;BME280;63446;56.272;43.922;2023-07-13T10:37:43;99645.25;;;23.23;45.94
74893;BME280;63446;56.272;43.922;2023-07-13T10:40:37;99651.28;;;23.53;45.62
74893;BME280;63446;56.272;43.922;2023-07-13T10:43:05;99654.94;;;23.72;44.97
74893;BME280;63446;56.272;43.922;2023-07-13T10:45:34;99651.50;;;23.82;44.56
74893;BME280;63446;56.272;43.922;2023-07-13T10:48:01;99655.41;;;23.84;44.00
74893;BME280;63446;56.272;43.922;2023-07-13T10:50:29;99661.16;;;23.79;44.10
74893;BME280;63446;56.272;43.922;2023-07-13T10:53:17;99662.19;;;23.68;44.11
74893;BME280;63446;56.272;43.922;2023-07-13T10:58:23;99661.09;;;23.31;44.63
74893;BME280;63446;56.272;43.922;2023-07-13T11:01:03;99658.53;;;23.05;45.20
74893;BME280;63446;56.272;43.922;2023-07-13T11:03:38;99655.16;;;22.81;45.65
74893;BME280;63446;56.272;43.922;2023-07-13T11:11:44;99666.91;;;22.09;46.55
74893;BME280;63446;56.272;43.922;2023-07-13T11:14:42;99672.81;;;21.92;46.91
74893;BME280;63446;56.272;43.922;2023-07-13T11:20:35;99664.22;;;21.83;47.32
74893;BME280;63446;56.272;43.922;2023-07-13T11:25:42;99664.22;;;22.09;47.29
74893;BME280;63446;56.272;43.922;2023-07-13T11:35:57;99665.16;;;23.11;45.17
74893;BME280;63446;56.272;43.922;2023-07-13T11:38:39;99658.06;;;23.36;44.57
74893;BME280;63446;56.272;43.922;2023-07-13T11:41:15;99664.72;;;23.50;44.10
74893;BME280;63446;56.272;43.922;2023-07-13T11:43:44;99667.09;;;23.55;44.04
74893;BME280;63446;56.272;43.922;2023-07-13T11:46:27;99672.06;;;23.49;44.24
74893;BME280;63446;56.272;43.922;2023-07-13T11:48:55;99681.22;;;23.41;44.31
74893;BME280;63446;56.272;43.922;2023-07-13T11:51:31;99671.94;;;23.38;44.50
74893;BME280;63446;56.272;43.922;2023-07-13T11:54:03;99670.44;;;23.41;43.97
74893;BME280;63446;56.272;43.922;2023-07-13T11:56:30;99675.06;;;23.44;43.74
74893;BME280;63446;56.272;43.922;2023-07-13T11:59:10;99676.94;;;23.36;43.51
74893;BME280;63446;56.272;43.922;2023-07-13T12:01:46;99674.88;;;23.23;43.80
74893;BME280;63446;56.272;43.922;2023-07-13T12:07:15;99672.09;;;22.82;44.56
74893;BME280;63446;56.272;43.922;2023-07-13T12:09:42;99681.53;;;22.65;45.27
74893;BME280;63446;56.272;43.922;2023-07-13T12:12:16;99683.16;;;22.43;45.75
74893;BME280;63446;56.272;43.922;2023-07-13T12:14:43;99684.44;;;22.23;46.18
74893;BME280;63446;56.272;43.922;2023-07-13T12:17:23;99678.38;;;22.03;46.30
74893;BME280;63446;56.272;43.922;2023-07-13T12:19:52;99689.63;;;21.85;46.24
74893;BME280;63446;56.272;43.922;2023-07-13T12:22:20;99678.22;;;21.69;46.45
74893;BME280;63446;56.272;43.922;2023-07-13T12:24:47;99680.25;;;21.53;46.35
74893;BME280;63446;56.272;43.922;2023-07-13T12:27:23;99680.41;;;21.40;46.51
74893;BME280;63446;56.272;43.922;2023-07-13T12:29:53;99683.41;;;21.35;46.73
74893;BME280;63446;56.272;43.922;2023-07-13T12:32:26;99677.94;;;21.32;46.57
74893;BME280;63446;56.272;43.922;2023-07-13T12:34:54;99677.94;;;21.32;46.79
74893;BME280;63446;56.272;43.922;2023-07-13T12:37:22;99675.34;;;21.35;47.04
74893;BME280;63446;56.272;43.922;2023-07-13T12:39:48;99663.19;;;21.41;46.97
74893;BME280;63446;56.272;43.922;2023-07-13T12:42:28;99672.47;;;21.48;47.05
74893;BME280;63446;56.272;43.922;2023-07-13T12:45:17;99671.88;;;21.58;47.04
74893;BME280;63446;56.272;43.922;2023-07-13T12:47:49;99676.00;;;21.75;46.30
74893;BME280;63446;56.272;43.922;2023-07-13T12:50:37;99668.38;;;22.03;45.98
74893;BME280;63446;56.272;43.922;2023-07-13T12:55:47;99674.81;;;22.52;45.24
74893;BME280;63446;56.272;43.922;2023-07-13T12:58:26;99665.03;;;22.70;45.09
74893;BME280;63446;56.272;43.922;2023-07-13T13:00:56;99678.31;;;22.86;44.68
74893;BME280;63446;56.272;43.922;2023-07-13T13:03:25;99676.91;;;22.96;44.56
74893;BME280;63446;56.272;43.922;2023-07-13T13:05:57;99675.03;;;23.00;44.86
74893;BME280;63446;56.272;43.922;2023-07-13T13:08:26;99672.69;;;22.98;45.00
74893;BME280;63446;56.272;43.922;2023-07-13T13:10:52;99672.09;;;22.82;44.96
74893;BME280;63446;56.272;43.922;2023-07-13T13:13:19;99676.09;;;22.61;45.33
74893;BME280;63446;56.272;43.922;2023-07-13T13:15:44;99665.38;;;22.35;45.75
74893;BME280;63446;56.272;43.922;2023-07-13T13:18:16;99668.00;;;22.05;46.24
74893;BME280;63446;56.272;43.922;2023-07-13T13:20:42;99674.06;;;21.75;46.98
74893;BME280;63446;56.272;43.922;2023-07-13T13:23:20;99690.81;;;21.42;48.33
74893;BME280;63446;56.272;43.922;2023-07-13T13:25:48;99687.94;;;21.12;49.74
74893;BME280;63446;56.272;43.922;2023-07-13T13:28:18;99682.03;;;20.83;51.11
74893;BME280;63446;56.272;43.922;2023-07-13T13:30:46;99683.75;;;20.56;51.77
74893;BME280;63446;56.272;43.922;2023-07-13T13:33:16;99685.91;;;20.31;52.13
74893;BME280;63446;56.272;43.922;2023-07-13T13:35:43;99683.16;;;20.12;52.38
74893;BME280;63446;56.272;43.922;2023-07-13T13:38:19;99692.38;;;19.95;52.42
74893;BME280;63446;56.272;43.922;2023-07-13T13:40:45;99684.41;;;19.83;52.57
74893;BME280;63446;56.272;43.922;2023-07-13T13:43:15;99691.06;;;19.73;53.10
74893;BME280;63446;56.272;43.922;2023-07-13T13:45:43;99698.66;;;19.71;53.29
74893;BME280;63446;56.272;43.922;2023-07-13T13:48:18;99694.88;;;19.72;53.80
74893;BME280;63446;56.272;43.922;2023-07-13T13:50:45;99690.53;;;19.83;53.82